Time;durP1;ratioP1;P1;durP2;ratioP2;P2;SDS_P1;SDS_P2;PMS_P1;PMS_P2;Temp;Humidity;BMP_temperature;BMP_pressure;BME280_temperature;BME280_humidity;BME280_pressure;Samples;Min_cycle;Max_cycle;Signal;HPM_P1;HPM_P2
2022/06/29 00:00:54;;;;;;;53.85;51.20;;;;;;;26.48;38.31;101475.53;5056516;28;20040;-81
2022/06/29 00:03:19;;;;;;;54.67;51.38;;;;;;;26.46;38.13;101477.81;5055827;28;20056;-80
2022/06/29 00:05:45;;;;;;;54.35;51.08;;;;;;;26.42;38.29;101480.44;5056634;28;20412;-79
2022/06/29 00:08:10;;;;;;;54.95;52.35;;;;;;;26.39;38.36;101472.81;5056897;28;20120;-80
2022/06/29 00:10:37;;;;;;;56.03;53.33;;;;;;;26.37;38.22;101477.06;5055749;28;20037;-80
2022/06/29 00:13:02;;;;;;;52.83;50.10;;;;;;;26.33;38.07;101469.41;5055539;28;20048;-80
2022/06/29 00:15:28;;;;;;;55.05;52.35;;;;;;;26.29;38.24;101468.44;5055637;28;20021;-80
2022/06/29 00:17:54;;;;;;;52.40;49.70;;;;;;;26.28;38.25;101466.00;5055758;28;20025;-79
2022/06/29 00:20:20;;;;;;;52.75;49.65;;;;;;;26.25;38.54;101461.13;5055477;28;20037;-79
2022/06/29 00:22:46;;;;;;;51.67;48.97;;;;;;;26.21;38.34;101463.75;5055550;28;20033;-79
2022/06/29 00:25:12;;;;;;;50.88;48.38;;;;;;;26.20;38.05;101466.84;5055896;28;20040;-80
2022/06/29 00:27:39;;;;;;;49.78;47.30;;;;;;;26.16;38.22;101463.09;5055901;28;20037;-79
2022/06/29 00:30:06;;;;;;;52.92;50.33;;;;;;;26.12;38.14;101461.00;5055707;28;20033;-80
2022/06/29 00:32:31;;;;;;;53.83;51.22;;;;;;;26.11;38.17;101461.34;5054064;28;20037;-80
2022/06/29 00:35:00;;;;;;;54.42;51.63;;;;;;;26.07;38.36;101458.41;5055315;28;20036;-81
2022/06/29 00:37:26;;;;;;;51.83;48.55;;;;;;;26.04;38.77;101449.97;5055099;28;20079;-81
2022/06/29 00:39:52;;;;;;;51.53;48.95;;;;;;;26.02;38.67;101450.28;5055596;28;20377;-80
2022/06/29 00:42:17;;;;;;;52.65;50.05;;;;;;;25.99;38.37;101450.97;5055563;28;20471;-80
2022/06/29 00:44:43;;;;;;;51.65;49.08;;;;;;;25.97;38.80;101449.66;5055172;28;20489;-80
2022/06/29 00:47:08;;;;;;;49.83;47.33;;;;;;;25.93;38.48;101455.06;5053895;28;20033;-78
2022/06/29 00:49:34;;;;;;;50.72;48.13;;;;;;;25.90;38.98;101451.00;5054928;28;20362;-80
2022/06/29 00:52:05;;;;;;;50.63;47.92;;;;;;;25.87;38.21;101445.28;5054975;28;20033;-79
2022/06/29 00:54:36;;;;;;;50.38;47.58;;;;;;;25.84;38.71;101438.44;5055096;28;20056;-79
2022/06/29 00:57:05;;;;;;;50.58;47.97;;;;;;;25.81;38.43;101439.09;5055172;28;20104;-79
2022/06/29 00:59:34;;;;;;;51.70;49.13;;;;;;;25.78;38.71;101430.63;5054523;28;20068;-81
2022/06/29 01:01:59;;;;;;;51.35;48.55;;;;;;;25.75;38.57;101429.31;5054993;28;20029;-79
2022/06/29 01:04:26;;;;;;;51.45;48.50;;;;;;;25.73;38.50;101425.25;5054577;28;20025;-81
2022/06/29 01:06:51;;;;;;;50.47;47.92;;;;;;;25.69;38.89;101420.38;5054842;28;20033;-80
2022/06/29 01:09:18;;;;;;;50.25;47.72;;;;;;;25.66;38.91;101421.06;5054957;28;20037;-81
2022/06/29 01:11:44;;;;;;;50.90;48.30;;;;;;;25.64;38.59;101417.81;5054698;28;20485;-77
2022/06/29 01:14:15;;;;;;;51.28;48.78;;;;;;;25.62;38.69;101424.81;5054261;28;20132;-81
2022/06/29 01:16:40;;;;;;;52.97;50.38;;;;;;;25.58;38.47;101427.44;5054250;28;20489;-81
2022/06/29 01:19:05;;;;;;;50.97;48.30;;;;;;;25.55;38.44;101428.09;5054674;28;20124;-82
2022/06/29 01:21:35;;;;;;;50.05;47.55;;;;;;;25.53;39.02;101422.06;5054727;28;20037;-79
2022/06/29 01:24:00;;;;;;;49.03;46.42;;;;;;;25.51;39.11;101423.53;5053430;28;20057;-82
2022/06/29 01:26:26;;;;;;;50.08;47.38;;;;;;;25.46;38.84;101410.69;5054339;28;20072;-76
2022/06/29 01:28:51;;;;;;;49.00;46.30;;;;;;;25.44;39.14;101419.28;5053327;28;20043;-80
2022/06/29 01:31:18;;;;;;;50.90;48.40;;;;;;;25.41;39.04;101419.16;5053364;28;20025;-81
2022/06/29 01:33:45;;;;;;;49.47;46.72;;;;;;;25.38;39.21;101412.31;5053821;28;20029;-82
2022/06/29 01:36:11;;;;;;;49.27;46.47;;;;;;;25.35;38.78;101412.97;5054172;28;20484;-82
2022/06/29 01:38:38;;;;;;;50.25;47.60;;;;;;;25.32;38.78;101413.59;5054074;28;20469;-79
2022/06/29 01:41:05;;;;;;;50.83;48.05;;;;;;;25.31;38.79;101417.53;5054365;28;20083;-81
2022/06/29 01:43:31;;;;;;;48.78;46.28;;;;;;;25.28;38.83;101415.41;5052987;28;20116;-79
2022/06/29 01:45:57;;;;;;;47.40;45.03;;;;;;;25.25;39.22;101405.81;5054068;28;20036;-81
2022/06/29 01:48:22;;;;;;;50.42;47.92;;;;;;;25.21;39.23;101404.84;5053991;28;20033;-81
2022/06/29 01:50:48;;;;;;;48.80;46.20;;;;;;;25.19;38.88;101409.06;5053812;28;20086;-80
2022/06/29 01:53:14;;;;;;;47.20;44.80;;;;;;;25.17;38.84;101405.81;5054455;28;20033;-80
2022/06/29 01:55:39;;;;;;;50.03;47.42;;;;;;;25.15;39.17;101405.28;5053838;28;20381;-79
2022/06/29 01:58:05;;;;;;;48.63;46.20;;;;;;;25.11;38.98;101410.66;5053918;28;20170;-79
2022/06/29 02:00:30;;;;;;;47.60;45.30;;;;;;;25.08;39.33;101405.78;5053500;28;20397;-78
2022/06/29 02:02:55;;;;;;;49.67;47.17;;;;;;;25.06;39.13;101405.31;5053342;28;20056;-79
2022/06/29 02:05:21;;;;;;;47.63;45.25;;;;;;;25.03;39.16;101404.00;5052437;28;20033;-80
2022/06/29 02:07:46;;;;;;;50.47;47.83;;;;;;;25.01;39.51;101399.94;5053509;28;20036;-78
2022/06/29 02:10:11;;;;;;;48.20;45.70;;;;;;;24.97;39.00;101396.19;5053981;28;20087;-79
2022/06/29 02:12:37;;;;;;;47.83;45.22;;;;;;;24.95;39.48;101401.25;5053876;28;20419;-80
2022/06/29 02:15:03;;;;;;;50.03;47.25;;;;;;;24.92;39.37;101388.06;5054088;28;20040;-79
2022/06/29 02:17:28;;;;;;;48.53;45.92;;;;;;;24.89;39.37;101392.28;5053660;28;20032;-79
2022/06/29 02:19:53;;;;;;;47.60;45.13;;;;;;;24.87;39.21;101388.22;5053517;28;20492;-79
2022/06/29 02:22:19;;;;;;;46.63;44.13;;;;;;;24.83;39.58;101385.28;5053619;28;20404;-83
2022/06/29 02:24:44;;;;;;;50.22;47.60;;;;;;;24.80;39.19;101386.75;5053802;28;20040;-80
2022/06/29 02:27:09;;;;;;;51.28;48.53;;;;;;;24.79;39.66;101381.53;5052682;28;20140;-80
2022/06/29 02:29:35;;;;;;;48.40;45.95;;;;;;;24.75;39.33;101384.16;5053404;28;20043;-79
2022/06/29 02:34:44;;;;;;;49.03;46.53;;;;;;;24.70;39.25;101389.03;5053636;28;20052;-81
2022/06/29 02:37:11;;;;;;;46.15;43.75;;;;;;;24.68;39.36;101385.78;5057748;28;20029;-79
2022/06/29 02:39:36;;;;;;;46.55;43.92;;;;;;;24.64;39.63;101382.00;5056263;28;20124;-80
2022/06/29 02:42:02;;;;;;;46.80;44.30;;;;;;;24.60;39.55;101393.72;5057722;28;20121;-81
2022/06/29 02:44:27;;;;;;;47.05;44.55;;;;;;;24.58;39.77;101379.41;5057915;28;20381;-81
2022/06/29 02:46:53;;;;;;;49.22;46.63;;;;;;;24.56;39.60;101383.63;5057545;28;20476;-79
2022/06/29 02:49:18;;;;;;;46.95;44.35;;;;;;;24.53;39.37;101376.00;5057911;28;20036;-81
2022/06/29 02:51:43;;;;;;;49.35;46.65;;;;;;;24.50;39.67;101380.22;5055937;28;20033;-79
2022/06/29 02:54:09;;;;;;;47.13;44.63;;;;;;;24.49;39.74;101375.81;5056287;28;20033;-79
2022/06/29 02:56:34;;;;;;;46.80;44.20;;;;;;;24.47;39.96;101371.75;5057180;28;20112;-81
2022/06/29 02:59:00;;;;;;;46.03;43.65;;;;;;;24.44;39.60;101358.56;5057252;28;20044;-80
2022/06/29 03:01:25;;;;;;;44.83;42.53;;;;;;;24.41;39.98;101365.53;5057705;28;20029;-80
2022/06/29 03:03:51;;;;;;;46.85;44.50;;;;;;;24.38;40.00;101360.66;5057087;28;20103;-79
2022/06/29 03:06:16;;;;;;;47.83;45.28;;;;;;;24.36;39.88;101351.88;5057047;28;20033;-81
2022/06/29 03:08:41;;;;;;;45.58;43.13;;;;;;;24.33;39.67;101356.09;5055573;28;20029;-79
2022/06/29 03:11:07;;;;;;;44.47;42.25;;;;;;;24.31;39.95;101352.03;5057337;28;20431;-81
2022/06/29 03:13:32;;;;;;;48.15;45.70;;;;;;;24.29;40.04;101346.84;5056846;28;20033;-78
2022/06/29 03:15:58;;;;;;;48.80;46.08;;;;;;;24.26;39.67;101344.69;5056711;28;20055;-80
2022/06/29 03:18:23;;;;;;;47.75;45.28;;;;;;;24.23;39.53;101353.63;5057028;28;20376;-81
2022/06/29 03:20:48;;;;;;;50.53;47.65;;;;;;;24.21;39.62;101352.31;5057175;28;20029;-80
2022/06/29 03:23:14;;;;;;;47.30;44.67;;;;;;;24.19;40.12;101349.88;5056407;28;20079;-79
2022/06/29 03:25:39;;;;;;;45.15;42.90;;;;;;;24.15;39.78;101346.94;5056481;28;20103;-81
2022/06/29 03:28:05;;;;;;;45.22;43.03;;;;;;;24.13;39.96;101346.44;5056450;28;20029;-80
2022/06/29 03:30:30;;;;;;;45.28;42.78;;;;;;;24.11;39.68;101345.16;5056564;28;20043;-82
2022/06/29 03:32:55;;;;;;;45.55;43.25;;;;;;;24.09;39.74;101341.88;5055145;28;20078;-81
2022/06/29 03:35:21;;;;;;;46.45;44.05;;;;;;;24.06;39.92;101339.78;5055429;28;20064;-80
2022/06/29 03:37:46;;;;;;;47.17;44.47;;;;;;;24.04;39.74;101333.75;5056087;28;20492;-79
2022/06/29 03:40:12;;;;;;;44.10;41.92;;;;;;;24.02;39.86;101334.09;5056077;28;20461;-80
2022/06/29 03:42:37;;;;;;;46.60;43.95;;;;;;;23.98;39.85;101328.38;5056420;28;20028;-81
2022/06/29 03:45:03;;;;;;;44.00;41.55;;;;;;;23.97;39.99;101331.47;5056737;28;20029;-81
2022/06/29 03:47:29;;;;;;;46.45;43.88;;;;;;;23.94;39.87;101326.59;5055393;28;20068;-79
2022/06/29 03:49:54;;;;;;;46.17;43.63;;;;;;;23.93;40.37;101341.50;5056084;28;20041;-79
2022/06/29 03:52:20;;;;;;;42.65;40.45;;;;;;;23.89;40.22;101344.09;5056195;28;20039;-78
2022/06/29 03:54:45;;;;;;;44.95;42.45;;;;;;;23.87;40.36;101331.75;5056115;28;20032;-81
2022/06/29 03:57:11;;;;;;;43.40;40.80;;;;;;;23.85;40.07;101328.50;5056327;28;20033;-80
2022/06/29 03:59:36;;;;;;;42.70;40.40;;;;;;;23.83;40.36;101325.25;5055867;28;20037;-77
2022/06/29 04:02:01;;;;;;;44.40;42.10;;;;;;;23.81;40.08;101324.75;5055789;28;20060;-79
2022/06/29 04:04:27;;;;;;;47.00;44.60;;;;;;;23.78;40.30;101333.66;5055906;28;20083;-80
2022/06/29 04:06:52;;;;;;;44.53;42.13;;;;;;;23.75;40.42;101318.56;5055468;28;20370;-81
2022/06/29 04:09:18;;;;;;;42.25;40.03;;;;;;;23.72;40.48;101328.28;5055991;28;20075;-81
2022/06/29 04:11:48;;;;;;;42.75;40.45;;;;;;;23.71;40.29;101323.88;5056159;28;20048;-78
2022/06/29 04:14:18;;;;;;;43.92;41.53;;;;;;;23.68;40.63;101321.72;5056071;28;20033;-80
2022/06/29 04:16:44;;;;;;;41.80;39.47;;;;;;;23.66;40.33;101321.25;5055711;28;20032;-80
2022/06/29 04:19:09;;;;;;;43.00;40.80;;;;;;;23.64;40.61;101330.97;5055371;28;20037;-76
2022/06/29 04:21:35;;;;;;;45.08;42.78;;;;;;;23.61;40.59;101328.84;5055842;28;20033;-78
2022/06/29 04:24:00;;;;;;;42.67;40.42;;;;;;;23.58;40.30;101335.81;5055766;28;20036;-78
2022/06/29 04:26:26;;;;;;;43.70;41.20;;;;;;;23.57;40.34;101336.94;5056303;28;20057;-78
2022/06/29 04:28:51;;;;;;;44.05;41.75;;;;;;;23.54;40.28;101327.34;5055543;28;20037;-79
2022/06/29 04:31:17;;;;;;;42.78;40.58;;;;;;;23.53;40.60;101330.41;5055821;28;20114;-80
2022/06/29 04:33:42;;;;;;;43.65;41.35;;;;;;;23.50;40.80;101325.53;5056380;28;20025;-78
2022/06/29 04:36:07;;;;;;;42.10;39.90;;;;;;;23.49;40.72;101321.16;5037906;28;20159;-82
2022/06/29 04:38:33;;;;;;;43.65;40.80;;;;;;;23.46;40.53;101321.78;5037930;28;20460;-80
2022/06/29 04:40:59;;;;;;;44.92;42.50;;;;;;;23.44;40.30;101315.78;5056678;28;20037;-78
2022/06/29 04:43:27;;;;;;;43.88;41.58;;;;;;;23.43;40.50;101314.16;5055862;28;20040;-79
2022/06/29 04:48:37;;;;;;;42.53;40.30;;;;;;;23.38;40.41;101311.53;5056214;28;20282;-77
2022/06/29 04:51:02;;;;;;;44.33;41.42;;;;;;;23.36;40.68;101311.84;5056341;28;20029;-77
2022/06/29 04:53:27;;;;;;;42.58;40.05;;;;;;;23.35;40.91;101312.16;5055744;28;20033;-80
2022/06/29 04:55:53;;;;;;;44.72;42.28;;;;;;;23.31;40.89;101312.00;5054142;28;20083;-80
2022/06/29 04:58:18;;;;;;;41.83;38.92;;;;;;;23.31;40.50;101309.22;5054549;28;20036;-78
2022/06/29 05:00:43;;;;;;;43.25;41.05;;;;;;;23.28;40.66;101305.16;5056416;28;20174;-79
2022/06/29 05:03:09;;;;;;;41.83;39.50;;;;;;;23.27;40.94;101316.50;5056041;28;20039;-78
2022/06/29 05:05:34;;;;;;;41.97;39.45;;;;;;;23.25;41.03;101308.53;5055675;28;20036;-77
2022/06/29 05:08:00;;;;;;;41.65;39.35;;;;;;;23.24;41.03;101306.91;5054623;28;20036;-78
2022/06/29 05:10:25;;;;;;;42.38;40.17;;;;;;;23.23;40.64;101308.03;5054708;28;20033;-79
2022/06/29 05:12:52;;;;;;;41.33;38.60;;;;;;;23.21;40.99;101306.72;5054794;28;20033;-77
2022/06/29 05:15:18;;;;;;;42.78;40.08;;;;;;;23.19;40.99;101307.03;5055549;28;20017;-78
2022/06/29 05:17:45;;;;;;;41.72;39.53;;;;;;;23.18;41.29;101299.06;5054881;28;20029;-78
2022/06/29 05:20:11;;;;;;;40.63;38.40;;;;;;;23.16;40.77;101304.91;5054376;28;20040;-77
2022/06/29 05:22:37;;;;;;;42.90;40.60;;;;;;;23.15;40.83;101305.22;5054799;28;20108;-76
2022/06/29 05:25:03;;;;;;;43.38;41.10;;;;;;;23.14;41.25;101309.94;5054111;28;20450;-78
2022/06/29 05:27:28;;;;;;;42.35;40.20;;;;;;;23.15;40.94;101314.31;5054167;28;20036;-78
2022/06/29 05:29:54;;;;;;;41.28;39.10;;;;;;;23.14;41.00;101320.13;5054228;28;20029;-78
2022/06/29 05:32:19;;;;;;;43.13;40.75;;;;;;;23.13;41.59;101311.03;5054181;28;20382;-78
2022/06/29 05:34:45;;;;;;;41.80;39.70;;;;;;;23.11;41.10;101305.84;5054109;28;20171;-77
2022/06/29 05:37:10;;;;;;;44.22;41.78;;;;;;;23.12;41.17;101301.16;5054621;28;20024;-79
2022/06/29 05:39:35;;;;;;;41.15;38.75;;;;;;;23.11;41.35;101294.03;5054156;28;20465;-77
2022/06/29 05:42:01;;;;;;;43.90;41.38;;;;;;;23.10;41.18;101293.19;5054225;28;20033;-79
2022/06/29 05:44:26;;;;;;;42.30;39.97;;;;;;;23.10;41.38;101295.94;5053736;28;20033;-79
2022/06/29 05:46:52;;;;;;;44.45;41.78;;;;;;;23.11;41.55;101296.78;5053934;28;20033;-78
2022/06/29 05:49:17;;;;;;;42.33;39.72;;;;;;;23.10;41.19;101287.69;5052635;28;20029;-78
2022/06/29 05:51:43;;;;;;;43.47;41.08;;;;;;;23.10;41.25;101292.38;5053953;28;20053;-79
2022/06/29 05:54:08;;;;;;;43.65;41.15;;;;;;;23.11;41.45;101292.06;5054007;28;20393;-77
2022/06/29 05:56:33;;;;;;;43.47;41.17;;;;;;;23.11;41.42;101291.28;5054124;28;20029;-78
2022/06/29 05:58:59;;;;;;;43.38;40.83;;;;;;;23.13;41.61;101296.44;5053447;28;20405;-77
2022/06/29 06:01:24;;;;;;;42.95;40.70;;;;;;;23.13;41.40;101293.69;5053512;28;20037;-79
2022/06/29 06:03:50;;;;;;;42.63;40.53;;;;;;;23.13;41.48;101290.94;5053773;28;20032;-78
2022/06/29 06:06:15;;;;;;;44.78;42.30;;;;;;;23.15;41.65;101294.19;5053247;28;20481;-80
2022/06/29 06:08:40;;;;;;;42.35;40.15;;;;;;;23.16;41.82;101291.13;5053463;28;20033;-78
2022/06/29 06:11:06;;;;;;;45.33;42.90;;;;;;;23.17;42.06;101286.44;5053428;28;20029;-79
2022/06/29 06:13:31;;;;;;;44.83;42.42;;;;;;;23.19;42.13;101295.22;5054227;28;20090;-78
2022/06/29 06:15:56;;;;;;;42.08;39.88;;;;;;;23.20;42.32;101300.38;5053801;28;20079;-79
2022/06/29 06:18:22;;;;;;;42.45;40.25;;;;;;;23.21;42.32;101288.25;5052475;28;20519;-79
2022/06/29 06:20:47;;;;;;;42.53;40.20;;;;;;;23.23;41.88;101290.69;5053616;28;20056;-78
2022/06/29 06:23:13;;;;;;;43.55;41.10;;;;;;;23.26;42.28;101292.81;5053390;28;20025;-77
2022/06/29 06:25:38;;;;;;;43.60;41.13;;;;;;;23.26;42.09;101284.56;5054005;28;20053;-77
2022/06/29 06:28:05;;;;;;;41.40;39.05;;;;;;;23.28;42.07;101283.13;5053760;28;20059;-79
2022/06/29 06:30:31;;;;;;;43.92;41.58;;;;;;;23.30;42.59;101283.59;5053536;28;20036;-78
2022/06/29 06:32:57;;;;;;;43.58;41.08;;;;;;;23.34;42.71;101283.78;5053484;28;20033;-77
2022/06/29 06:35:22;;;;;;;43.95;41.58;;;;;;;23.37;42.60;101293.38;5053245;28;20035;-79
2022/06/29 06:37:48;;;;;;;41.67;39.22;;;;;;;23.38;42.53;101290.28;5052979;28;20369;-79
2022/06/29 06:42:58;;;;;;;41.90;39.35;;;;;;;23.44;42.28;101283.50;5054191;28;20047;-79
2022/06/29 06:45:24;;;;;;;43.67;41.38;;;;;;;23.48;42.70;101286.44;5052520;28;20021;-80
2022/06/29 06:47:50;;;;;;;43.25;40.97;;;;;;;23.51;42.60;101286.63;5052803;28;20029;-78
2022/06/29 06:50:16;;;;;;;44.03;41.67;;;;;;;23.54;42.96;101286.00;5053518;28;20052;-80
2022/06/29 06:52:42;;;;;;;43.58;41.38;;;;;;;23.56;42.50;101277.38;5053625;28;20040;-78
2022/06/29 06:55:08;;;;;;;46.00;43.50;;;;;;;23.61;43.16;101281.94;5054008;28;20480;-82
2022/06/29 06:57:33;;;;;;;46.00;43.38;;;;;;;23.63;43.16;101280.50;5054774;28;20040;-79
2022/06/29 06:59:59;;;;;;;43.28;41.08;;;;;;;23.66;43.15;101287.31;5054571;28;20033;-80
2022/06/29 07:02:24;;;;;;;42.67;40.35;;;;;;;23.68;42.88;101283.13;5057608;28;20431;-79
2022/06/29 07:04:50;;;;;;;43.15;40.75;;;;;;;23.71;43.20;101284.44;5073366;28;20039;-78
2022/06/29 07:07:15;;;;;;;44.17;41.72;;;;;;;23.74;42.96;101279.13;5077250;28;20028;-77
2022/06/29 07:09:41;;;;;;;44.03;41.45;;;;;;;23.80;43.34;101284.50;5077171;28;20090;-80
2022/06/29 07:12:07;;;;;;;43.35;41.05;;;;;;;23.83;43.46;101281.91;5076971;28;20041;-74
2022/06/29 07:14:32;;;;;;;43.45;40.92;;;;;;;23.86;43.66;101281.25;5067238;28;20457;-80
2022/06/29 07:16:58;;;;;;;42.03;39.47;;;;;;;23.89;43.18;101279.81;5064959;28;20017;-80
2022/06/29 07:19:23;;;;;;;46.30;43.50;;;;;;;23.93;43.13;101287.13;5076220;28;20052;-79
2022/06/29 07:21:49;;;;;;;44.47;42.17;;;;;;;23.97;43.42;101285.38;5068459;28;20037;-82
2022/06/29 07:24:14;;;;;;;45.65;43.25;;;;;;;24.02;43.65;101289.13;5076758;28;20088;-80
2022/06/29 07:26:40;;;;;;;43.28;41.13;;;;;;;24.05;43.21;101286.53;5062645;28;20079;-80
2022/06/29 07:29:05;;;;;;;45.63;42.58;;;;;;;24.09;43.51;101283.94;5057041;28;20039;-80
2022/06/29 07:31:31;;;;;;;44.70;42.40;;;;;;;24.14;43.38;101286.53;5056763;28;20037;-80
2022/06/29 07:33:56;;;;;;;43.47;41.28;;;;;;;24.16;43.38;101279.56;5056661;28;20087;-80
2022/06/29 07:36:21;;;;;;;47.25;44.58;;;;;;;24.22;43.14;101282.16;5063032;28;20029;-80
2022/06/29 07:38:47;;;;;;;45.58;43.08;;;;;;;24.28;43.36;101280.91;5069971;28;20090;-80
2022/06/29 07:41:12;;;;;;;47.15;44.85;;;;;;;24.32;43.13;101282.69;5059435;28;20032;-80
2022/06/29 07:43:38;;;;;;;44.30;42.10;;;;;;;24.36;43.18;101274.56;5057289;28;20393;-80
2022/06/29 07:46:03;;;;;;;45.00;42.80;;;;;;;24.40;43.45;101273.59;5057623;28;20033;-80
2022/06/29 07:48:28;;;;;;;47.65;44.90;;;;;;;24.47;43.44;101277.84;5058455;28;20096;-81
2022/06/29 07:50:54;;;;;;;46.25;43.65;;;;;;;24.51;43.20;101268.59;5059132;28;20129;-80
2022/06/29 07:53:20;;;;;;;47.42;44.85;;;;;;;24.58;43.31;101271.69;5058012;28;20028;-82
2022/06/29 07:55:45;;;;;;;46.70;44.08;;;;;;;24.65;43.54;101270.41;5056574;28;20457;-81
2022/06/29 07:58:15;;;;;;;45.88;43.58;;;;;;;24.70;43.44;101268.28;5056815;28;20025;-81
2022/06/29 08:00:41;;;;;;;46.80;44.45;;;;;;;24.76;43.09;101269.72;5055989;28;20083;-80
2022/06/29 08:03:07;;;;;;;45.88;43.38;;;;;;;24.82;43.29;101273.13;5056357;28;20462;-81
2022/06/29 08:05:33;;;;;;;45.97;43.70;;;;;;;24.88;43.05;101274.59;5056529;28;20037;-81
2022/06/29 08:07:59;;;;;;;46.17;43.67;;;;;;;24.93;43.16;101274.44;5056239;28;20025;-83
2022/06/29 08:10:24;;;;;;;46.97;44.47;;;;;;;24.99;43.21;101278.63;5054944;28;20044;-81
2022/06/29 08:12:50;;;;;;;47.88;45.40;;;;;;;25.05;43.18;101271.81;5056015;28;20033;-81
2022/06/29 08:15:17;;;;;;;48.92;46.22;;;;;;;25.14;43.45;101270.97;5055709;28;20057;-80
2022/06/29 08:17:43;;;;;;;52.83;50.15;;;;;;;25.20;43.11;101266.91;5055689;28;20102;-81
2022/06/29 08:20:10;;;;;;;46.72;44.20;;;;;;;25.26;43.50;101273.91;5055415;28;20037;-83
2022/06/29 08:22:35;;;;;;;46.38;44.10;;;;;;;25.32;43.51;101263.47;5055735;28;20048;-83
2022/06/29 08:25:01;;;;;;;47.67;45.45;;;;;;;25.39;43.13;101269.31;5055331;28;20172;-83
2022/06/29 08:27:27;;;;;;;52.42;49.30;;;;;;;25.46;42.93;101272.38;5055431;28;20040;-82
2022/06/29 08:29:52;;;;;;;46.60;44.30;;;;;;;25.53;43.29;101266.31;5055745;28;20377;-81
2022/06/29 08:32:18;;;;;;;50.72;47.97;;;;;;;25.59;43.16;101263.06;5055062;28;20460;-81
2022/06/29 08:34:43;;;;;;;50.70;48.13;;;;;;;25.67;43.51;101258.63;5055309;28;20117;-81
2022/06/29 08:37:09;;;;;;;48.63;46.22;;;;;;;25.73;43.40;101254.53;5055282;28;20052;-79
2022/06/29 08:39:34;;;;;;;53.20;50.47;;;;;;;25.83;43.33;101258.88;5054454;28;20115;-78
2022/06/29 08:42:04;;;;;;;50.90;48.20;;;;;;;25.89;43.14;101255.63;5055248;28;20382;-78
2022/06/29 08:44:37;;;;;;;51.58;48.72;;;;;;;25.97;42.62;101259.47;5055142;28;20083;-81
2022/06/29 08:47:04;;;;;;;50.85;48.03;;;;;;;26.05;42.48;101260.56;5055448;28;20031;-85
2022/06/29 08:49:31;;;;;;;50.53;47.60;;;;;;;26.12;42.58;101260.84;5055028;28;20029;-81
2022/06/29 08:51:57;;;;;;;52.83;50.03;;;;;;;26.21;42.33;101263.56;5054925;28;20033;-83
2022/06/29 08:54:25;;;;;;;51.75;49.17;;;;;;;26.28;42.50;101256.34;5055020;28;20029;-83
2022/06/29 08:56:57;;;;;;;53.80;50.92;;;;;;;26.37;42.55;101259.03;5055484;28;20033;-83
2022/06/29 08:59:22;;;;;;;52.10;49.53;;;;;;;26.45;42.86;101258.16;5054557;28;20028;-85
2022/06/29 09:01:49;;;;;;;53.33;50.60;;;;;;;26.54;42.82;101260.91;5055680;28;20033;-83
2022/06/29 09:04:15;;;;;;;52.53;49.88;;;;;;;26.61;42.87;101254.81;5055255;28;20124;-81
2022/06/29 09:06:41;;;;;;;53.67;50.63;;;;;;;26.70;42.69;101252.78;5054726;28;20064;-82
2022/06/29 09:09:06;;;;;;;54.13;51.28;;;;;;;26.79;41.96;101258.22;5054743;28;20029;-81
2022/06/29 09:11:33;;;;;;;58.33;55.53;;;;;;;26.87;42.26;101258.16;5054663;28;20037;-82
2022/06/29 09:14:19;;;;;;;54.50;51.70;;;;;;;26.97;42.53;101260.50;5054509;28;20492;-82
2022/06/29 09:16:53;;;;;;;57.15;54.25;;;;;;;27.05;42.17;101258.00;5054896;28;20110;-84
2022/06/29 09:19:22;;;;;;;53.33;50.63;;;;;;;27.14;42.24;101258.69;5054589;28;20082;-83
2022/06/29 09:21:50;;;;;;;58.55;55.25;;;;;;;27.23;41.91;101256.66;5054421;28;20091;-83
2022/06/29 09:24:16;;;;;;;59.03;55.53;;;;;;;27.32;41.68;101257.38;5054438;28;20041;-80
2022/06/29 09:26:42;;;;;;;57.80;54.97;;;;;;;27.41;41.76;101254.50;5054725;28;20326;-84
2022/06/29 09:29:26;;;;;;;55.20;52.47;;;;;;;27.52;41.82;101254.88;5053853;28;20506;-82
2022/06/29 09:32:06;;;;;;;60.90;57.88;;;;;;;27.61;41.83;101256.34;5054243;28;20119;-82
2022/06/29 09:34:37;;;;;;;60.33;57.45;;;;;;;27.70;41.49;101252.69;5054217;28;20507;-81
2022/06/29 09:37:04;;;;;;;60.55;57.55;;;;;;;27.80;41.84;101255.78;5054480;28;20025;-82
2022/06/29 09:39:40;;;;;;;57.30;54.55;;;;;;;27.89;41.56;101252.91;5054078;28;20024;-81
2022/06/29 09:42:08;;;;;;;61.58;58.58;;;;;;;27.98;41.93;101242.50;5054194;28;20033;-84
2022/06/29 09:44:34;;;;;;;59.90;56.72;;;;;;;28.08;41.71;101245.97;5053756;28;20480;-82
2022/06/29 09:47:04;;;;;;;61.05;58.13;;;;;;;28.18;41.53;101251.03;5054027;28;20033;-81
2022/06/29 09:49:32;;;;;;;62.05;59.05;;;;;;;28.25;40.80;101249.28;5054274;28;20032;-81
2022/06/29 09:51:59;;;;;;;59.50;56.70;;;;;;;28.37;40.63;101253.19;5053833;28;20041;-81
2022/06/29 09:54:36;;;;;;;58.72;55.92;;;;;;;28.46;40.76;101245.56;5053736;28;20116;-81
2022/06/29 09:57:03;;;;;;;61.67;58.58;;;;;;;28.56;40.76;101247.84;5053861;28;20036;-82
2022/06/29 10:05:04;;;;;;;63.22;59.72;;;;;;;28.88;40.13;101237.63;5053931;28;20044;-81
2022/06/29 10:07:30;;;;;;;62.85;59.72;;;;;;;28.98;40.10;101247.41;5053746;28;20133;-82
2022/06/29 10:09:57;;;;;;;65.50;62.30;;;;;;;29.09;40.43;101240.19;5053907;28;20036;-83
2022/06/29 10:15:50;;;;;;;64.78;61.70;;;;;;;29.30;39.82;101242.69;5045604;28;20048;-81
2022/06/29 10:18:25;;;;;;;67.55;64.07;;;;;;;29.42;39.22;101235.44;5053941;28;20032;-81
2022/06/29 10:20:52;;;;;;;68.82;65.40;;;;;;;29.52;39.28;101237.69;5053787;28;20033;-81
2022/06/29 10:23:42;;;;;;;66.35;63.25;;;;;;;29.65;39.54;101238.41;5053585;28;20036;-80
2022/06/29 10:26:37;;;;;;;66.07;62.63;;;;;;;29.76;38.69;101240.31;5052674;28;20377;-81
2022/06/29 10:29:06;;;;;;;66.03;62.70;;;;;;;29.85;38.08;101225.38;5052598;28;20045;-81
2022/06/29 10:31:53;;;;;;;66.40;63.28;;;;;;;29.95;38.65;101224.81;5053092;28;20469;-79
2022/06/29 10:34:31;;;;;;;66.60;63.60;;;;;;;30.04;39.59;101225.41;5053807;28;20029;-81
2022/06/29 10:37:02;;;;;;;65.10;62.10;;;;;;;30.12;39.34;101218.81;5053692;28;20033;-80
2022/06/29 10:39:52;;;;;;;67.82;64.72;;;;;;;30.24;39.12;101222.63;5053173;28;20047;-81
2022/06/29 10:45:16;;;;;;;68.18;65.03;;;;;;;30.41;39.11;101213.88;5053312;28;20083;-80
2022/06/29 10:47:47;;;;;;;70.72;66.93;;;;;;;30.47;38.49;101214.41;5053106;28;20533;-80
2022/06/29 10:50:24;;;;;;;68.97;65.78;;;;;;;30.54;38.41;101209.78;5053183;28;20033;-80
2022/06/29 10:52:55;;;;;;;69.78;66.53;;;;;;;30.61;38.63;101218.25;5053583;28;20096;-81
2022/06/29 10:55:22;;;;;;;67.38;64.22;;;;;;;30.68;38.41;101217.59;5053609;28;20116;-83
2022/06/29 10:57:47;;;;;;;69.68;66.47;;;;;;;30.75;37.99;101214.94;5056587;28;20029;-82
2022/06/29 11:00:25;;;;;;;73.93;70.38;;;;;;;30.82;37.94;101211.53;5057945;28;20117;-80
2022/06/29 11:02:51;;;;;;;72.00;68.60;;;;;;;30.87;37.84;101208.44;5057100;28;20048;-82
2022/06/29 11:05:17;;;;;;;74.38;70.88;;;;;;;30.93;37.50;101206.16;5057079;28;20033;-82
2022/06/29 11:13:23;;;;;;;74.20;70.70;;;;;;;31.07;37.01;101192.44;5057548;28;20099;-82
2022/06/29 11:15:51;;;;;;;73.55;70.18;;;;;;;31.11;37.44;101198.88;5057644;28;20025;-80
2022/06/29 11:18:19;;;;;;;74.30;70.97;;;;;;;31.15;37.55;101202.56;5056983;28;20033;-82
2022/06/29 11:20:48;;;;;;;75.55;71.95;;;;;;;31.18;37.26;101195.44;5056558;28;20049;-82
2022/06/29 11:23:16;;;;;;;70.72;67.45;;;;;;;31.22;36.71;101196.28;5056756;28;20462;-82
2022/06/29 11:25:47;;;;;;;74.15;70.32;;;;;;;31.26;37.20;101194.34;5056485;28;20052;-84
2022/06/29 11:28:16;;;;;;;72.40;69.10;;;;;;;31.29;37.22;101185.22;5055250;28;20025;-82
2022/06/29 11:30:42;;;;;;;75.20;71.72;;;;;;;31.32;37.12;101183.69;5056439;28;20021;-82
2022/06/29 11:33:10;;;;;;;73.07;69.68;;;;;;;31.36;36.65;101192.94;5056244;28;20503;-83